Elec, Russia
Current Conditions -  °F | °C
As of 8:00 AM on Friday 31 Oct 2014 (Local Time) from UUOO Reporting Station
Broken Clouds Broken Clouds  
Wind Chill: 37°   Ceiling: 10000
Heat Index: 37°   Visibility: 4mi
Dew Point: 19°   Wind: 2mph
Humidity: 48%   Direction: NA
Pressure: 30.12"   Gusts: NA
Location:  52.63°N, 38.52°E
Report Text: UUOO 310500Z VRB01MPS 6000 BKN100 03/M07 Q1020 NOSIG RMK 30090070
Loading
Personal Weather Stations






























Interactive Weather Map
Tropical Storm Tracking
New forecast layout! Learn more

10-Day Weather Forecast

Advertisements
Track Severe Weather on mobile